createdAt,value
2022-10-23T00:01:33.583Z,39.60
2022-10-23T00:03:35.241Z,39.90
2022-10-23T00:05:41.136Z,40.40
2022-10-23T00:07:42.787Z,39.80
2022-10-23T00:09:44.823Z,39.80
2022-10-23T00:11:47.982Z,40.00
2022-10-23T00:13:51.072Z,40.20
2022-10-23T00:17:59.228Z,39.80
2022-10-23T00:20:01.831Z,39.80
2022-10-23T00:22:03.701Z,39.80
2022-10-23T00:26:15.557Z,39.40
2022-10-23T00:28:17.517Z,39.60
2022-10-23T00:30:19.377Z,39.70
2022-10-23T00:32:21.104Z,39.90
2022-10-23T00:34:22.837Z,39.90
2022-10-23T00:36:26.873Z,40.10
2022-10-23T00:38:28.529Z,40.30
2022-10-23T00:40:34.437Z,40.50
2022-10-23T00:42:36.121Z,40.70
2022-10-23T00:44:37.874Z,40.90
2022-10-23T00:46:40.223Z,40.90
2022-10-23T00:48:45.809Z,40.90
2022-10-23T00:50:54.111Z,41.00
2022-10-23T00:52:57.690Z,41.00
2022-10-23T00:54:59.610Z,40.80
2022-10-23T00:57:04.086Z,40.80
2022-10-23T00:59:05.946Z,40.90
2022-10-23T01:01:21.000Z,40.90
2022-10-23T01:03:30.177Z,41.40
2022-10-23T01:05:44.545Z,41.30
2022-10-23T01:07:58.355Z,41.50
2022-10-23T01:10:06.211Z,41.80
2022-10-23T01:12:31.589Z,41.70
2022-10-23T01:14:46.340Z,42.60
2022-10-23T01:16:59.812Z,42.60
2022-10-23T01:19:05.233Z,42.50
2022-10-23T01:21:51.524Z,41.90
2022-10-23T01:24:20.058Z,42.50
2022-10-23T01:26:34.922Z,42.30
2022-10-23T01:28:42.459Z,41.70
2022-10-23T01:30:44.921Z,41.70
2022-10-23T01:33:01.633Z,41.80
2022-10-23T01:35:28.282Z,42.10
2022-10-23T01:37:51.940Z,42.50
2022-10-23T01:39:58.965Z,42.80
2022-10-23T01:42:10.974Z,42.80
2022-10-23T01:44:27.465Z,43.50
2022-10-23T01:46:32.612Z,43.40
2022-10-23T01:48:36.277Z,43.50
2022-10-23T01:50:45.798Z,43.50
2022-10-23T01:52:47.587Z,43.50
2022-10-23T01:54:53.488Z,43.50
2022-10-23T01:56:57.778Z,43.40
2022-10-23T01:59:06.181Z,43.40
2022-10-23T02:01:16.331Z,43.40
2022-10-23T02:03:24.502Z,43.40
2022-10-23T02:05:30.806Z,43.30
2022-10-23T02:07:34.976Z,43.50
2022-10-23T02:09:36.949Z,43.50
2022-10-23T02:11:50.776Z,43.50
2022-10-23T02:14:07.526Z,43.40
2022-10-23T02:16:24.961Z,43.30
2022-10-23T02:19:07.770Z,43.50
2022-10-23T02:21:16.477Z,43.50
2022-10-23T02:23:42.974Z,43.50
2022-10-23T02:25:56.890Z,43.50
2022-10-23T02:28:03.181Z,43.40
2022-10-23T02:30:15.973Z,43.30
2022-10-23T02:32:24.969Z,43.30
2022-10-23T02:34:27.021Z,43.30
2022-10-23T02:36:29.682Z,43.20
2022-10-23T02:38:41.303Z,43.20
2022-10-23T02:40:45.363Z,43.20
2022-10-23T02:42:57.959Z,43.40
2022-10-23T02:45:28.901Z,44.30
2022-10-23T02:47:46.591Z,44.70
2022-10-23T02:50:00.963Z,44.30
2022-10-23T02:52:25.458Z,44.60
2022-10-23T02:54:46.663Z,44.60
2022-10-23T02:57:15.346Z,44.10
2022-10-23T02:59:41.447Z,44.20
2022-10-23T03:01:58.132Z,43.80
2022-10-23T03:04:04.805Z,44.00
2022-10-23T03:06:09.230Z,43.70
2022-10-23T03:08:13.634Z,44.40
2022-10-23T03:10:18.130Z,43.40
2022-10-23T03:12:19.785Z,43.20
2022-10-23T03:14:22.130Z,43.20
2022-10-23T03:16:27.537Z,43.30
2022-10-23T03:18:29.967Z,43.40
2022-10-23T03:20:34.023Z,43.30
2022-10-23T03:22:35.958Z,43.20
2022-10-23T03:24:37.605Z,43.20
2022-10-23T03:26:39.301Z,43.20
2022-10-23T03:28:40.987Z,43.10
2022-10-23T03:30:42.659Z,43.10
2022-10-23T03:32:44.777Z,43.10
2022-10-23T03:34:48.165Z,43.20
2022-10-23T03:36:49.866Z,43.10
2022-10-23T03:38:54.953Z,43.10
2022-10-23T03:40:58.856Z,43.10
2022-10-23T03:43:02.867Z,43.10
2022-10-23T03:45:07.476Z,43.10
2022-10-23T03:47:11.728Z,43.10
2022-10-23T03:49:14.549Z,43.00
2022-10-23T03:51:18.822Z,43.10
2022-10-23T03:53:20.479Z,43.00
2022-10-23T03:55:22.172Z,43.00
2022-10-23T03:57:26.540Z,43.00
2022-10-23T03:59:29.006Z,42.50
2022-10-23T04:01:33.379Z,42.40
2022-10-23T04:03:35.137Z,42.30
2022-10-23T04:05:40.557Z,42.00
2022-10-23T04:07:42.277Z,41.80
2022-10-23T04:09:45.428Z,41.90
2022-10-23T04:11:52.935Z,42.10
2022-10-23T04:13:54.651Z,42.20
2022-10-23T04:15:57.998Z,42.30
2022-10-23T04:18:02.111Z,42.80
2022-10-23T04:20:05.907Z,42.80
2022-10-23T04:22:08.613Z,42.80
2022-10-23T04:24:10.639Z,42.70
2022-10-23T04:26:13.603Z,42.50
2022-10-23T04:28:15.278Z,42.50
2022-10-23T04:30:20.556Z,42.50
2022-10-23T04:32:22.720Z,42.20
2022-10-23T04:34:24.435Z,42.10
2022-10-23T04:36:28.285Z,41.90
2022-10-23T04:38:32.253Z,42.00
2022-10-23T04:40:38.053Z,41.60
2022-10-23T04:42:40.040Z,41.70
2022-10-23T04:44:43.474Z,41.70
2022-10-23T04:46:46.099Z,41.90
2022-10-23T04:48:48.159Z,42.00
2022-10-23T04:51:20.059Z,42.00
2022-10-23T04:53:33.975Z,42.30
2022-10-23T04:55:53.480Z,42.50
2022-10-23T04:57:59.767Z,42.50
2022-10-23T05:00:01.601Z,42.50
2022-10-23T05:02:09.918Z,43.30
2022-10-23T05:04:11.849Z,43.80
2022-10-23T05:06:33.557Z,44.20
2022-10-23T05:08:57.473Z,44.20
2022-10-23T05:11:29.141Z,44.20
2022-10-23T05:13:30.877Z,43.80
2022-10-23T05:15:32.606Z,43.60
2022-10-23T05:17:37.635Z,43.20
2022-10-23T05:19:47.539Z,43.20
2022-10-23T05:21:55.635Z,43.20
2022-10-23T05:24:02.014Z,42.90
2022-10-23T05:26:04.754Z,42.60
2022-10-23T05:28:07.222Z,42.60
2022-10-23T05:30:11.206Z,42.50
2022-10-23T05:32:16.073Z,42.50
2022-10-23T05:34:25.408Z,42.50
2022-10-23T05:36:27.617Z,42.50
2022-10-23T05:38:36.168Z,42.40
2022-10-23T05:40:45.246Z,42.40
2022-10-23T05:42:55.622Z,42.40
2022-10-23T05:45:08.949Z,42.40
2022-10-23T05:47:42.024Z,42.40
2022-10-23T05:50:03.247Z,42.30
2022-10-23T05:52:27.813Z,42.50
2022-10-23T05:54:53.191Z,42.30
2022-10-23T05:57:14.753Z,42.30
2022-10-23T05:59:22.086Z,42.30
2022-10-23T06:01:27.829Z,42.20
2022-10-23T06:03:37.715Z,42.20
2022-10-23T06:05:49.851Z,42.20
2022-10-23T06:07:59.080Z,42.20
2022-10-23T06:10:00.882Z,42.20
2022-10-23T06:12:02.921Z,42.10
2022-10-23T06:14:07.073Z,42.30
2022-10-23T06:16:10.664Z,42.30
2022-10-23T06:18:13.482Z,42.80
2022-10-23T06:20:28.928Z,43.30
2022-10-23T06:22:40.284Z,43.40
2022-10-23T06:25:01.445Z,43.30
2022-10-23T06:27:06.321Z,43.90
2022-10-23T06:29:13.890Z,44.10
2022-10-23T06:31:19.876Z,44.50
2022-10-23T06:33:23.313Z,44.60
2022-10-23T06:35:25.081Z,44.80
2022-10-23T06:37:27.184Z,44.90
2022-10-23T06:39:41.094Z,45.20
2022-10-23T06:41:55.889Z,45.20
2022-10-23T06:44:16.210Z,45.20
2022-10-23T06:46:24.340Z,45.10
2022-10-23T06:48:58.637Z,44.80
2022-10-23T06:51:06.963Z,44.60
2022-10-23T06:53:14.690Z,44.80
2022-10-23T06:55:22.946Z,44.70
2022-10-23T06:57:24.593Z,44.80
2022-10-23T06:59:26.276Z,45.10
2022-10-23T07:01:28.566Z,45.40
2022-10-23T07:03:30.728Z,45.60
2022-10-23T07:05:32.928Z,45.40
2022-10-23T07:07:35.464Z,45.50
2022-10-23T07:09:37.256Z,45.40
2022-10-23T07:11:57.742Z,45.20
2022-10-23T07:14:07.957Z,44.50
2022-10-23T07:16:12.322Z,44.30
2022-10-23T07:18:16.927Z,44.20
2022-10-23T07:20:37.131Z,44.30
2022-10-23T07:22:38.943Z,44.10
2022-10-23T07:24:47.031Z,44.20
2022-10-23T07:26:59.867Z,44.30
2022-10-23T07:29:03.962Z,44.40
2022-10-23T07:31:09.556Z,44.70
2022-10-23T07:33:31.148Z,45.10
2022-10-23T07:35:41.044Z,45.30
2022-10-23T07:37:46.422Z,45.60
2022-10-23T07:39:48.238Z,45.70
2022-10-23T07:41:50.167Z,45.60
2022-10-23T07:43:52.910Z,45.50
2022-10-23T07:45:57.025Z,45.50
2022-10-23T07:48:05.113Z,45.50
2022-10-23T07:50:29.407Z,45.50
2022-10-23T07:52:33.596Z,45.50
2022-10-23T07:54:46.177Z,45.70
2022-10-23T07:56:53.748Z,45.80
2022-10-23T07:58:58.716Z,45.90
2022-10-23T08:01:05.102Z,45.80
2022-10-23T08:03:15.168Z,46.00
2022-10-23T08:05:19.822Z,45.90
2022-10-23T08:07:31.131Z,46.10
2022-10-23T08:09:34.413Z,45.90
2022-10-23T08:11:37.986Z,45.90
2022-10-23T08:13:42.176Z,45.80
2022-10-23T08:15:45.094Z,45.50
2022-10-23T08:18:05.141Z,45.40
2022-10-23T08:20:17.466Z,45.10
2022-10-23T08:22:20.556Z,44.90
2022-10-23T08:24:23.679Z,45.00
2022-10-23T08:26:26.821Z,44.90
2022-10-23T08:28:30.212Z,44.90
2022-10-23T08:30:36.755Z,44.80
2022-10-23T08:32:40.686Z,44.40
2022-10-23T08:34:42.768Z,44.50
2022-10-23T08:36:46.974Z,44.30
2022-10-23T08:38:49.860Z,44.40
2022-10-23T08:40:54.427Z,44.30
2022-10-23T08:43:37.834Z,44.50
2022-10-23T08:45:59.892Z,45.00
2022-10-23T08:48:48.207Z,45.50
2022-10-23T08:51:35.358Z,45.70
2022-10-23T08:54:08.213Z,45.50
2022-10-23T08:56:20.520Z,44.90
2022-10-23T08:58:36.158Z,44.10
2022-10-23T09:00:37.891Z,44.30
2022-10-23T09:02:51.002Z,44.40
2022-10-23T09:04:54.943Z,44.00
2022-10-23T09:07:12.759Z,44.30
2022-10-23T09:09:29.153Z,43.80
2022-10-23T09:11:42.971Z,43.50
2022-10-23T09:14:02.305Z,43.40
2022-10-23T09:16:25.274Z,43.00
2022-10-23T09:18:29.157Z,42.40
2022-10-23T09:20:35.772Z,42.30
2022-10-23T09:22:37.450Z,41.90
2022-10-23T09:24:43.118Z,42.10
2022-10-23T09:26:49.591Z,41.50
2022-10-23T09:29:09.041Z,41.30
2022-10-23T09:31:12.486Z,40.70
2022-10-23T09:33:40.238Z,40.70
2022-10-23T09:35:54.131Z,40.40
2022-10-23T09:37:56.670Z,39.20
2022-10-23T09:40:28.914Z,39.40
2022-10-23T09:42:33.248Z,38.80
2022-10-23T09:44:34.865Z,38.70
2022-10-23T09:46:41.736Z,38.60
2022-10-23T09:48:45.722Z,38.50
2022-10-23T09:51:17.677Z,39.00
2022-10-23T09:53:27.465Z,39.10
2022-10-23T09:55:31.354Z,39.10
2022-10-23T09:57:41.450Z,39.50
2022-10-23T09:59:50.014Z,38.50
2022-10-23T10:01:54.670Z,38.60
2022-10-23T10:04:08.426Z,39.00
2022-10-23T10:06:22.934Z,38.60
2022-10-23T10:08:46.450Z,37.80
2022-10-23T10:10:53.801Z,36.80
2022-10-23T10:13:01.761Z,36.50
2022-10-23T10:15:19.082Z,36.30
2022-10-23T10:17:39.285Z,36.40
2022-10-23T10:20:14.546Z,36.50
2022-10-23T10:22:44.679Z,35.50
2022-10-23T10:24:51.867Z,35.20
2022-10-23T10:27:19.557Z,34.90
2022-10-23T10:29:31.182Z,35.00
2022-10-23T10:32:01.820Z,34.20
2022-10-23T10:34:15.632Z,34.20
2022-10-23T10:36:30.630Z,34.30
2022-10-23T10:39:11.041Z,33.70
2022-10-23T10:41:42.102Z,33.50
2022-10-23T10:44:10.690Z,33.50
2022-10-23T10:46:57.090Z,33.00
2022-10-23T10:49:17.590Z,32.40
2022-10-23T10:51:52.055Z,32.20
2022-10-23T10:54:07.826Z,32.20
2022-10-23T10:56:14.637Z,31.80
2022-10-23T10:58:18.578Z,31.10
2022-10-23T11:00:26.962Z,30.90
2022-10-23T11:02:41.426Z,30.60
2022-10-23T11:04:55.587Z,30.00
2022-10-23T11:06:58.463Z,29.40
2022-10-23T11:09:20.751Z,29.40
2022-10-23T11:11:37.180Z,29.20
2022-10-23T11:13:41.900Z,28.90
2022-10-23T11:15:44.542Z,28.80
2022-10-23T11:17:55.204Z,28.70
2022-10-23T11:20:10.284Z,28.80
2022-10-23T11:22:46.768Z,29.10
2022-10-23T11:25:16.061Z,29.20
2022-10-23T11:27:56.540Z,29.20
2022-10-23T11:30:23.652Z,29.20
2022-10-23T11:33:07.912Z,29.00
2022-10-23T11:35:42.596Z,29.50
2022-10-23T11:37:44.525Z,29.00
2022-10-23T11:40:04.210Z,28.80
2022-10-23T11:42:05.800Z,28.50
2022-10-23T11:44:46.349Z,28.10
2022-10-23T11:47:00.964Z,28.20
2022-10-23T11:49:06.028Z,28.20
2022-10-23T11:51:33.842Z,27.80
2022-10-23T11:53:35.417Z,28.20
2022-10-23T11:55:39.207Z,28.20
2022-10-23T11:57:41.050Z,28.20
2022-10-23T11:59:48.629Z,28.30
2022-10-23T12:01:52.287Z,28.30
2022-10-23T12:03:59.139Z,28.40
2022-10-23T12:06:05.540Z,28.40
2022-10-23T12:08:21.442Z,28.40
2022-10-23T12:10:30.667Z,28.20
2022-10-23T12:12:43.094Z,28.50
2022-10-23T12:14:50.160Z,28.40
2022-10-23T12:16:52.228Z,28.40
2022-10-23T12:18:59.021Z,28.70
2022-10-23T12:21:04.556Z,28.80
2022-10-23T12:23:23.836Z,28.80
2022-10-23T12:25:44.194Z,28.60
2022-10-23T12:28:07.688Z,28.20
2022-10-23T12:30:48.526Z,28.10
2022-10-23T12:33:05.558Z,28.20
2022-10-23T12:35:28.592Z,28.30
2022-10-23T12:37:48.630Z,27.80
2022-10-23T12:39:55.965Z,27.20
2022-10-23T12:41:59.070Z,27.50
2022-10-23T12:44:05.570Z,27.30
2022-10-23T12:46:32.101Z,27.00
2022-10-23T12:48:34.361Z,26.90
2022-10-23T12:50:37.042Z,26.80
2022-10-23T12:52:39.614Z,26.30
2022-10-23T12:54:41.465Z,26.80
2022-10-23T12:56:45.058Z,26.70
2022-10-23T12:59:00.502Z,27.00
2022-10-23T13:01:21.235Z,27.10
2022-10-23T13:03:25.418Z,26.80
2022-10-23T13:05:33.828Z,26.70
2022-10-23T13:07:45.270Z,26.70
2022-10-23T13:09:49.374Z,26.60
2022-10-23T13:12:04.322Z,26.30
2022-10-23T13:14:16.262Z,26.70
2022-10-23T13:16:30.622Z,26.70
2022-10-23T13:18:41.397Z,26.60
2022-10-23T13:20:53.605Z,26.80
2022-10-23T13:23:19.729Z,27.00
2022-10-23T13:25:32.909Z,27.30
2022-10-23T13:27:34.715Z,27.20
2022-10-23T13:29:36.475Z,27.20
2022-10-23T13:31:38.184Z,27.20
2022-10-23T13:33:44.243Z,27.10
2022-10-23T13:35:56.682Z,27.50
2022-10-23T13:38:08.386Z,27.50
2022-10-23T13:40:23.794Z,27.40
2022-10-23T13:42:25.544Z,27.40
2022-10-23T13:44:27.224Z,27.60
2022-10-23T13:46:29.306Z,27.50
2022-10-23T13:48:31.063Z,27.40
2022-10-23T13:50:33.958Z,27.30
2022-10-23T13:52:35.584Z,27.50
2022-10-23T13:54:37.225Z,27.50
2022-10-23T13:56:38.906Z,27.40
2022-10-23T13:58:42.860Z,27.20
2022-10-23T14:00:46.807Z,27.40
2022-10-23T14:02:49.832Z,27.30
2022-10-23T14:04:51.918Z,27.20
2022-10-23T14:06:58.299Z,27.10
2022-10-23T14:09:00.105Z,27.20
2022-10-23T14:11:01.781Z,27.40
2022-10-23T14:13:06.091Z,27.30
2022-10-23T14:15:08.783Z,27.40
2022-10-23T14:17:10.516Z,27.50
2022-10-23T14:19:15.126Z,27.70
2022-10-23T14:21:20.056Z,27.80
2022-10-23T14:23:22.653Z,27.40
2022-10-23T14:25:24.289Z,27.50
2022-10-23T14:27:25.942Z,27.70
2022-10-23T14:29:29.873Z,27.70
2022-10-23T14:31:31.642Z,27.60
2022-10-23T14:33:35.970Z,27.90
2022-10-23T14:35:40.928Z,27.80
2022-10-23T14:37:45.117Z,27.90
2022-10-23T14:39:49.990Z,27.80
2022-10-23T14:41:53.126Z,27.90
2022-10-23T14:43:55.129Z,27.60
2022-10-23T14:45:56.841Z,27.90
2022-10-23T14:48:00.867Z,28.10
2022-10-23T14:50:02.952Z,28.30
2022-10-23T14:52:04.722Z,28.10
2022-10-23T14:54:09.251Z,28.10
2022-10-23T14:56:11.112Z,28.40
2022-10-23T14:58:13.001Z,28.40
2022-10-23T15:00:14.895Z,28.50
2022-10-23T15:02:17.349Z,28.70
2022-10-23T15:04:20.211Z,28.60
2022-10-23T15:06:21.887Z,28.90
2022-10-23T15:08:23.758Z,28.80
2022-10-23T15:10:25.454Z,28.90
2022-10-23T15:12:27.136Z,28.90
2022-10-23T15:14:28.879Z,28.80
2022-10-23T15:16:33.028Z,28.80
2022-10-23T15:20:52.021Z,28.80
2022-10-23T15:22:56.653Z,28.70
2022-10-23T15:25:01.144Z,28.70
2022-10-23T15:27:02.992Z,28.70
2022-10-23T15:29:06.592Z,28.90
2022-10-23T15:31:43.928Z,29.10
2022-10-23T15:33:45.567Z,29.20
2022-10-23T15:35:48.879Z,29.30
2022-10-23T15:37:50.754Z,29.50
2022-10-23T15:39:52.455Z,29.60
2022-10-23T15:41:56.475Z,29.70
2022-10-23T15:43:59.424Z,29.80
2022-10-23T15:46:01.062Z,29.90
2022-10-23T15:48:05.293Z,30.00
2022-10-23T15:50:07.680Z,30.10
2022-10-23T15:54:21.085Z,30.20
2022-10-23T15:56:24.937Z,30.60
2022-10-23T15:58:28.741Z,30.60
2022-10-23T16:00:30.541Z,30.90
2022-10-23T16:02:35.204Z,31.10
2022-10-23T16:04:36.958Z,31.30
2022-10-23T16:06:41.350Z,31.40
2022-10-23T16:08:43.900Z,31.40
2022-10-23T16:10:45.691Z,31.80
2022-10-23T16:12:47.324Z,32.10
2022-10-23T16:14:53.435Z,32.30
2022-10-23T16:16:55.086Z,32.70
2022-10-23T16:19:00.989Z,33.10
2022-10-23T16:21:02.681Z,33.40
2022-10-23T16:23:04.303Z,33.70
2022-10-23T16:25:06.581Z,34.20
2022-10-23T16:27:08.254Z,34.80
2022-10-23T16:29:11.239Z,36.50
2022-10-23T16:31:20.688Z,37.30
2022-10-23T16:33:22.480Z,35.40
2022-10-23T16:35:24.233Z,31.70
2022-10-23T16:37:37.376Z,30.50
2022-10-23T16:39:43.106Z,30.90
2022-10-23T16:42:03.567Z,31.40
2022-10-23T16:44:19.801Z,31.60
2022-10-23T16:46:34.370Z,32.00
2022-10-23T16:48:38.337Z,32.10
2022-10-23T16:50:41.241Z,32.50
2022-10-23T16:52:43.265Z,32.80
2022-10-23T16:54:45.127Z,33.10
2022-10-23T16:56:48.261Z,33.20
2022-10-23T16:58:50.059Z,33.70
2022-10-23T17:01:00.211Z,34.60
2022-10-23T17:03:04.272Z,35.30
2022-10-23T17:05:06.263Z,35.80
2022-10-23T17:07:12.926Z,35.70
2022-10-23T17:09:14.971Z,36.50
2022-10-23T17:11:22.560Z,37.10
2022-10-23T17:13:25.289Z,37.50
2022-10-23T17:15:26.962Z,37.70
2022-10-23T17:17:28.714Z,37.80
2022-10-23T17:19:47.034Z,37.90
2022-10-23T17:21:50.923Z,37.90
2022-10-23T17:23:53.939Z,38.00
2022-10-23T17:25:58.013Z,38.20
2022-10-23T17:27:59.639Z,38.20
2022-10-23T17:30:03.326Z,38.20
2022-10-23T17:32:05.911Z,38.10
2022-10-23T17:34:12.973Z,37.90
2022-10-23T17:36:15.948Z,38.10
2022-10-23T17:38:18.997Z,38.00
2022-10-23T17:40:24.902Z,38.10
2022-10-23T17:42:26.968Z,38.20
2022-10-23T17:44:32.855Z,38.30
2022-10-23T17:46:34.533Z,38.50
2022-10-23T17:48:36.621Z,38.60
2022-10-23T17:50:38.699Z,38.80
2022-10-23T17:52:43.218Z,39.00
2022-10-23T17:54:45.091Z,39.10
2022-10-23T17:56:47.000Z,39.00
2022-10-23T17:58:51.073Z,39.20
2022-10-23T18:00:54.141Z,39.50
2022-10-23T18:02:58.116Z,39.50
2022-10-23T18:04:59.926Z,39.50
2022-10-23T18:07:01.566Z,39.40
2022-10-23T18:09:05.965Z,39.20
2022-10-23T18:11:13.764Z,39.30
2022-10-23T18:13:22.631Z,39.20
2022-10-23T18:15:24.391Z,39.50
2022-10-23T18:17:26.197Z,39.40
2022-10-23T18:19:28.197Z,39.60
2022-10-23T18:21:30.732Z,40.30
2022-10-23T18:23:33.034Z,40.80
2022-10-23T18:25:35.212Z,41.40
2022-10-23T18:27:39.642Z,41.80
2022-10-23T18:29:43.524Z,41.90
2022-10-23T18:31:48.178Z,41.90
2022-10-23T18:33:50.010Z,41.90
2022-10-23T18:35:52.901Z,41.90
2022-10-23T18:37:54.659Z,41.60
2022-10-23T18:39:56.428Z,41.60
2022-10-23T18:41:58.627Z,41.60
2022-10-23T18:44:02.511Z,41.30
2022-10-23T18:46:04.988Z,41.30
2022-10-23T18:48:06.923Z,41.30
2022-10-23T18:50:09.227Z,41.20
2022-10-23T18:52:11.270Z,41.10
2022-10-23T18:54:14.777Z,41.20
2022-10-23T18:56:22.718Z,41.30
2022-10-23T18:58:25.154Z,41.30
2022-10-23T19:00:27.045Z,41.40
2022-10-23T19:02:30.030Z,41.50
2022-10-23T19:04:34.237Z,41.50
2022-10-23T19:06:38.186Z,41.50
2022-10-23T19:08:41.709Z,41.40
2022-10-23T19:10:44.926Z,41.20
2022-10-23T19:12:46.964Z,41.20
2022-10-23T19:14:49.124Z,41.10
2022-10-23T19:17:14.267Z,40.90
2022-10-23T19:19:21.553Z,40.70
2022-10-23T19:21:31.157Z,40.80
2022-10-23T19:23:37.942Z,40.50
2022-10-23T19:25:39.916Z,40.60
2022-10-23T19:27:44.420Z,40.40
2022-10-23T19:29:49.843Z,40.30
2022-10-23T19:31:51.959Z,40.10
2022-10-23T19:33:53.906Z,40.10
2022-10-23T19:35:55.713Z,40.00
2022-10-23T19:37:57.786Z,39.90
2022-10-23T19:39:59.765Z,39.80
2022-10-23T19:42:01.595Z,39.60
2022-10-23T19:44:03.589Z,39.60
2022-10-23T19:46:09.367Z,39.50
2022-10-23T19:48:19.746Z,39.70
2022-10-23T19:50:21.901Z,39.70
2022-10-23T19:52:23.855Z,39.60
2022-10-23T19:54:25.668Z,40.30
2022-10-23T19:56:31.674Z,39.50
2022-10-23T19:58:33.646Z,39.60
2022-10-23T20:00:36.475Z,39.60
2022-10-23T20:02:38.377Z,39.50
2022-10-23T20:04:40.645Z,39.60
2022-10-23T20:06:42.465Z,39.90
2022-10-23T20:08:44.245Z,39.90
2022-10-23T20:10:47.952Z,40.00
2022-10-23T20:12:56.693Z,40.10
2022-10-23T20:15:04.689Z,40.00
2022-10-23T20:17:06.581Z,40.10
2022-10-23T20:19:10.144Z,40.10
2022-10-23T20:21:12.068Z,40.20
2022-10-23T20:23:13.791Z,40.50
2022-10-23T20:25:16.082Z,40.20
2022-10-23T20:27:18.699Z,40.40
2022-10-23T20:29:22.319Z,40.50
2022-10-23T20:31:26.362Z,40.40
2022-10-23T20:33:28.710Z,40.10
2022-10-23T20:35:37.039Z,40.10
2022-10-23T20:37:38.913Z,40.30
2022-10-23T20:39:40.725Z,40.20
2022-10-23T20:41:43.805Z,40.00
2022-10-23T20:43:45.558Z,40.10
2022-10-23T20:45:47.549Z,40.00
2022-10-23T20:47:49.337Z,40.00
2022-10-23T20:49:51.154Z,40.00
2022-10-23T20:51:55.704Z,40.20
2022-10-23T20:53:57.885Z,40.30
2022-10-23T20:55:59.750Z,40.20
2022-10-23T20:58:01.647Z,40.30
2022-10-23T21:00:05.916Z,40.30
2022-10-23T21:02:09.360Z,40.60
2022-10-23T21:04:14.465Z,40.60
2022-10-23T21:06:17.377Z,40.50
2022-10-23T21:08:22.372Z,40.50
2022-10-23T21:10:24.147Z,40.60
2022-10-23T21:12:25.973Z,40.50
2022-10-23T21:14:28.590Z,40.40
2022-10-23T21:16:33.687Z,40.30
2022-10-23T21:18:45.659Z,40.40
2022-10-23T21:20:48.047Z,40.10
2022-10-23T21:22:54.290Z,40.10
2022-10-23T21:24:58.271Z,40.10
2022-10-23T21:27:00.010Z,40.00
2022-10-23T21:29:18.119Z,39.90
2022-10-23T21:31:21.925Z,39.90
2022-10-23T21:33:23.691Z,40.00
2022-10-23T21:35:27.834Z,39.90
2022-10-23T21:37:32.108Z,40.00
2022-10-23T21:39:34.363Z,39.90
2022-10-23T21:41:36.349Z,39.80
2022-10-23T21:43:38.243Z,40.00
2022-10-23T21:45:40.471Z,39.90
2022-10-23T21:47:42.493Z,40.00
2022-10-23T21:49:44.770Z,40.00
2022-10-23T21:51:47.346Z,39.90
2022-10-23T21:53:49.662Z,40.10
2022-10-23T21:55:51.715Z,40.20
2022-10-23T21:57:53.729Z,40.80
2022-10-23T21:59:58.320Z,40.30
2022-10-23T22:02:00.335Z,40.20
2022-10-23T22:04:02.521Z,40.40
2022-10-23T22:06:04.253Z,40.40
2022-10-23T22:08:06.181Z,40.40
2022-10-23T22:10:08.325Z,40.70
2022-10-23T22:12:14.214Z,40.50
2022-10-23T22:14:16.142Z,40.50
2022-10-23T22:16:18.169Z,40.50
2022-10-23T22:18:19.943Z,40.40
2022-10-23T22:20:21.666Z,40.40
2022-10-23T22:22:23.430Z,40.50
2022-10-23T22:24:25.656Z,40.50
2022-10-23T22:26:32.588Z,40.90
2022-10-23T22:28:34.360Z,40.80
2022-10-23T22:30:36.849Z,40.80
2022-10-23T22:32:38.557Z,40.80
2022-10-23T22:34:52.232Z,40.90
2022-10-23T22:36:55.133Z,40.80
2022-10-23T22:38:57.570Z,40.80
2022-10-23T22:41:02.636Z,40.90
2022-10-23T22:43:04.713Z,41.10
2022-10-23T22:45:07.492Z,41.20
2022-10-23T22:47:09.442Z,41.00
2022-10-23T22:49:11.546Z,41.00
2022-10-23T22:51:16.170Z,41.00
2022-10-23T22:53:18.000Z,41.30
2022-10-23T22:55:19.710Z,41.20
2022-10-23T22:57:21.686Z,41.10
2022-10-23T22:59:23.941Z,41.00
2022-10-23T23:01:31.018Z,40.90
2022-10-23T23:03:34.952Z,41.30
2022-10-23T23:05:44.793Z,40.90
2022-10-23T23:07:46.836Z,41.10
2022-10-23T23:09:49.062Z,40.90
2022-10-23T23:11:52.536Z,41.00
2022-10-23T23:13:54.679Z,41.00
2022-10-23T23:15:56.775Z,41.10
2022-10-23T23:17:59.459Z,41.20
2022-10-23T23:20:01.307Z,41.10
2022-10-23T23:22:03.997Z,41.00
2022-10-23T23:24:05.824Z,40.90
2022-10-23T23:26:08.579Z,40.70
2022-10-23T23:28:15.625Z,40.80
2022-10-23T23:30:19.382Z,40.80
2022-10-23T23:32:21.302Z,40.70
2022-10-23T23:34:23.106Z,40.80
2022-10-23T23:36:27.335Z,40.80
2022-10-23T23:38:29.181Z,40.70
2022-10-23T23:40:30.939Z,40.70
2022-10-23T23:42:33.193Z,40.60
2022-10-23T23:44:41.869Z,40.40
2022-10-23T23:46:52.110Z,40.10
2022-10-23T23:48:53.854Z,40.30
2022-10-23T23:50:55.678Z,40.30
2022-10-23T23:52:57.392Z,40.10
2022-10-23T23:54:59.945Z,40.10
2022-10-23T23:57:05.667Z,40.00
2022-10-23T23:59:07.493Z,40.10
